createdAt,value
2022-12-17T00:00:44.312Z,16.90
2022-12-17T00:03:30.712Z,20.57
2022-12-17T00:06:16.725Z,14.70
2022-12-17T00:09:03.178Z,18.97
2022-12-17T00:11:49.161Z,17.20
2022-12-17T00:14:35.298Z,16.80
2022-12-17T00:17:34.796Z,14.67
2022-12-17T00:20:21.085Z,17.33
2022-12-17T00:23:06.821Z,14.87
2022-12-17T00:25:53.101Z,15.17
2022-12-17T00:28:39.185Z,13.20
2022-12-17T00:31:25.456Z,14.97
2022-12-17T00:34:11.354Z,14.60
2022-12-17T00:36:57.664Z,16.47
2022-12-17T00:39:43.491Z,14.30
2022-12-17T00:42:29.740Z,13.83
2022-12-17T00:45:15.581Z,13.33
2022-12-17T00:48:01.652Z,11.57
2022-12-17T00:50:47.537Z,11.03
2022-12-17T00:53:33.963Z,13.10
2022-12-17T00:56:19.933Z,11.10
2022-12-17T00:59:05.936Z,11.97
2022-12-17T01:01:52.064Z,11.77
2022-12-17T01:04:38.872Z,11.87
2022-12-17T01:07:25.120Z,11.53
2022-12-17T01:10:11.864Z,9.67
2022-12-17T01:12:57.791Z,10.03
2022-12-17T01:15:43.942Z,10.40
2022-12-17T01:18:36.662Z,13.83
2022-12-17T01:21:23.877Z,11.40
2022-12-17T01:24:09.754Z,11.43
2022-12-17T01:26:56.229Z,12.03
2022-12-17T01:29:42.248Z,12.90
2022-12-17T01:32:28.355Z,10.77
2022-12-17T01:35:14.194Z,13.83
2022-12-17T01:38:00.535Z,10.57
2022-12-17T01:40:46.396Z,10.70
2022-12-17T01:43:33.482Z,11.77
2022-12-17T01:46:19.881Z,11.57
2022-12-17T01:49:06.580Z,10.53
2022-12-17T01:51:54.444Z,10.57
2022-12-17T01:54:43.326Z,13.40
2022-12-17T01:57:29.118Z,9.43
2022-12-17T02:00:20.155Z,9.73
2022-12-17T02:03:06.528Z,12.03
2022-12-17T02:06:16.756Z,11.03
2022-12-17T02:09:20.723Z,12.53
2022-12-17T02:12:25.766Z,9.57
2022-12-17T02:15:20.201Z,8.93
2022-12-17T02:18:17.099Z,9.83
2022-12-17T02:21:06.929Z,8.63
2022-12-17T02:24:06.476Z,9.07
2022-12-17T02:26:55.481Z,8.52
2022-12-17T02:29:45.054Z,11.30
2022-12-17T02:32:33.227Z,7.93
2022-12-17T02:35:20.865Z,10.63
2022-12-17T02:38:08.032Z,8.67
2022-12-17T02:40:56.981Z,8.33
2022-12-17T02:43:44.307Z,8.10
2022-12-17T02:46:31.447Z,11.63
2022-12-17T02:49:18.472Z,9.10
2022-12-17T02:52:07.049Z,7.87
2022-12-17T02:54:53.367Z,9.67
2022-12-17T02:57:43.600Z,8.00
2022-12-17T03:00:30.836Z,10.20
2022-12-17T03:03:17.992Z,9.90
2022-12-17T03:06:03.748Z,10.37
2022-12-17T03:08:49.991Z,9.87
2022-12-17T03:11:36.034Z,10.30
2022-12-17T03:14:22.276Z,9.40
2022-12-17T03:17:08.079Z,9.33
2022-12-17T03:19:54.235Z,10.83
2022-12-17T03:22:40.027Z,11.53
2022-12-17T03:25:26.501Z,16.03
2022-12-17T03:28:12.426Z,10.77
2022-12-17T03:30:58.817Z,10.87
2022-12-17T03:33:44.596Z,11.43
2022-12-17T03:36:30.755Z,10.33
2022-12-17T03:39:16.498Z,9.43
2022-12-17T03:42:02.765Z,9.77
2022-12-17T03:44:48.557Z,10.20
2022-12-17T03:47:34.638Z,14.90
2022-12-17T03:50:20.486Z,8.20
2022-12-17T03:53:06.638Z,9.07
2022-12-17T03:55:52.269Z,9.07
2022-12-17T03:58:38.442Z,11.27
2022-12-17T04:01:24.747Z,8.63
2022-12-17T04:04:10.886Z,10.87
2022-12-17T04:06:56.845Z,10.17
2022-12-17T04:09:42.945Z,8.57
2022-12-17T04:12:28.898Z,9.70
2022-12-17T04:15:15.153Z,8.97
2022-12-17T04:18:00.982Z,9.90
2022-12-17T04:20:47.133Z,11.17
2022-12-17T04:23:33.805Z,13.00
2022-12-17T04:26:20.156Z,11.67
2022-12-17T04:29:06.461Z,10.40
2022-12-17T04:31:52.690Z,10.97
2022-12-17T04:34:41.475Z,9.25
2022-12-17T04:37:27.564Z,9.17
2022-12-17T04:40:13.295Z,11.13
2022-12-17T04:43:00.284Z,12.23
2022-12-17T04:45:46.828Z,10.03
2022-12-17T04:48:33.203Z,24.50
2022-12-17T04:51:18.903Z,13.60
2022-12-17T04:54:05.096Z,9.60
2022-12-17T04:56:50.738Z,9.90
2022-12-17T04:59:37.153Z,12.13
2022-12-17T05:02:23.496Z,10.60
2022-12-17T05:05:09.786Z,15.80
2022-12-17T05:07:57.100Z,7.47
2022-12-17T05:10:43.897Z,8.67
2022-12-17T05:13:31.589Z,8.67
2022-12-17T05:16:17.865Z,10.53
2022-12-17T05:19:04.123Z,18.83
2022-12-17T05:21:50.244Z,12.40
2022-12-17T05:24:36.196Z,12.23
2022-12-17T05:27:22.220Z,7.77
2022-12-17T05:30:08.061Z,9.43
2022-12-17T05:32:54.710Z,6.80
2022-12-17T05:35:40.645Z,8.23
2022-12-17T05:38:28.847Z,11.37
2022-12-17T05:41:17.156Z,7.87
2022-12-17T05:44:03.933Z,9.82
2022-12-17T05:46:49.951Z,7.33
2022-12-17T05:49:36.219Z,8.53
2022-12-17T05:52:22.024Z,11.87
2022-12-17T05:55:08.132Z,10.77
2022-12-17T05:57:56.562Z,9.27
2022-12-17T06:00:43.529Z,8.95
2022-12-17T06:03:29.762Z,10.73
2022-12-17T06:06:16.369Z,8.90
2022-12-17T06:09:02.481Z,7.13
2022-12-17T06:11:48.640Z,24.10
2022-12-17T06:14:35.427Z,10.23
2022-12-17T06:17:21.549Z,10.20
2022-12-17T06:20:07.793Z,8.93
2022-12-17T06:22:53.691Z,10.20
2022-12-17T06:25:39.765Z,8.87
2022-12-17T06:28:25.510Z,6.70
2022-12-17T06:31:13.268Z,7.60
2022-12-17T06:33:59.779Z,8.93
2022-12-17T06:36:45.807Z,9.33
2022-12-17T06:39:31.947Z,7.03
2022-12-17T06:42:19.474Z,6.90
2022-12-17T06:45:08.307Z,5.53
2022-12-17T06:47:54.665Z,12.13
2022-12-17T06:50:40.414Z,8.00
2022-12-17T06:53:27.157Z,11.37
2022-12-17T06:56:16.730Z,5.93
2022-12-17T06:59:06.730Z,5.80
2022-12-17T07:01:53.872Z,10.57
2022-12-17T07:04:40.805Z,9.23
2022-12-17T07:07:26.897Z,10.13
2022-12-17T07:10:14.495Z,8.77
2022-12-17T07:13:01.184Z,9.53
2022-12-17T07:15:47.393Z,7.70
2022-12-17T07:18:34.613Z,9.23
2022-12-17T07:21:21.131Z,17.77
2022-12-17T07:24:06.793Z,9.10
2022-12-17T07:26:52.905Z,18.30
2022-12-17T07:29:38.647Z,15.97
2022-12-17T07:32:24.848Z,11.07
2022-12-17T07:35:10.896Z,17.33
2022-12-17T07:37:57.308Z,11.10
2022-12-17T07:40:43.197Z,13.53
2022-12-17T07:43:32.771Z,11.67
2022-12-17T07:46:19.674Z,18.12
2022-12-17T07:49:06.769Z,34.90
2022-12-17T07:51:52.923Z,21.20
2022-12-17T07:54:39.260Z,22.40
2022-12-17T07:57:25.438Z,28.83
2022-12-17T08:00:12.477Z,26.33
2022-12-17T08:02:58.700Z,9.90
2022-12-17T08:05:44.978Z,10.23
2022-12-17T08:08:33.274Z,8.60
2022-12-17T08:11:20.258Z,10.10
2022-12-17T08:14:06.667Z,6.10
2022-12-17T08:16:52.376Z,23.57
2022-12-17T08:19:38.684Z,6.60
2022-12-17T08:22:24.875Z,11.33
2022-12-17T08:25:11.005Z,7.20
2022-12-17T08:27:57.001Z,9.10
2022-12-17T08:30:43.920Z,11.40
2022-12-17T08:33:30.083Z,10.73
2022-12-17T08:36:16.658Z,12.07
2022-12-17T08:39:02.513Z,8.50
2022-12-17T08:41:54.228Z,6.30
2022-12-17T08:44:41.231Z,7.43
2022-12-17T08:47:50.478Z,8.83
2022-12-17T08:50:36.766Z,9.57
2022-12-17T08:53:23.551Z,6.77
2022-12-17T08:56:09.409Z,7.13
2022-12-17T08:58:59.327Z,4.70
2022-12-17T09:01:45.832Z,5.67
2022-12-17T09:04:32.478Z,10.73
2022-12-17T09:07:18.368Z,9.47
2022-12-17T09:10:04.529Z,9.93
2022-12-17T09:12:50.443Z,7.90
2022-12-17T09:15:36.486Z,5.68
2022-12-17T09:18:22.516Z,8.38
2022-12-17T09:21:13.755Z,7.75
2022-12-17T09:23:59.572Z,11.60
2022-12-17T09:26:45.837Z,12.98
2022-12-17T09:29:31.721Z,16.97
2022-12-17T09:32:18.273Z,14.30
2022-12-17T09:35:04.220Z,10.63
2022-12-17T09:37:52.061Z,9.50
2022-12-17T09:40:42.966Z,7.77
2022-12-17T09:43:48.102Z,15.30
2022-12-17T09:46:42.869Z,12.50
2022-12-17T09:49:56.292Z,10.77
2022-12-17T09:52:47.367Z,8.93
2022-12-17T09:55:36.674Z,6.53
2022-12-17T10:01:15.223Z,7.53
2022-12-17T10:04:04.891Z,8.07
2022-12-17T10:06:54.379Z,7.55
2022-12-17T10:09:41.107Z,9.30
2022-12-17T10:12:40.215Z,7.73
2022-12-17T10:15:32.180Z,9.50
2022-12-17T10:18:26.057Z,10.23
2022-12-17T10:21:23.705Z,12.90
2022-12-17T10:24:14.107Z,6.40
2022-12-17T10:27:08.009Z,10.50
2022-12-17T10:29:53.976Z,7.70
2022-12-17T10:32:45.240Z,11.13
2022-12-17T10:35:38.511Z,11.53
2022-12-17T10:38:41.599Z,21.53
2022-12-17T10:41:59.486Z,14.27
2022-12-17T10:44:50.390Z,25.90
2022-12-17T10:47:45.566Z,29.03
2022-12-17T10:50:38.468Z,24.33
2022-12-17T10:53:39.070Z,21.27
2022-12-17T10:56:25.985Z,11.97
2022-12-17T10:59:13.074Z,13.63
2022-12-17T11:02:00.887Z,11.80
2022-12-17T11:04:55.026Z,14.40
2022-12-17T11:07:44.207Z,10.77
2022-12-17T11:10:41.837Z,9.77
2022-12-17T11:13:49.201Z,6.60
2022-12-17T11:17:03.447Z,14.13
2022-12-17T11:20:03.265Z,17.03
2022-12-17T11:23:13.259Z,14.57
2022-12-17T11:26:05.762Z,18.23
2022-12-17T11:28:54.462Z,24.60
2022-12-17T11:32:02.013Z,17.50
2022-12-17T11:34:59.909Z,17.17
2022-12-17T11:37:57.268Z,16.35
2022-12-17T11:41:24.492Z,29.10
2022-12-17T11:44:33.258Z,29.52
2022-12-17T11:47:59.587Z,20.48
2022-12-17T11:51:03.300Z,17.30
2022-12-17T11:54:19.909Z,11.60
2022-12-17T11:57:34.297Z,11.25
2022-12-17T12:00:47.001Z,3.58
2022-12-17T12:04:02.279Z,6.37
2022-12-17T12:06:57.800Z,36.45
2022-12-17T12:10:08.130Z,23.52
2022-12-17T12:13:15.517Z,119.87
2022-12-17T12:16:01.739Z,44.93
2022-12-17T12:18:59.455Z,45.53
2022-12-17T12:22:04.898Z,34.95
2022-12-17T12:25:06.177Z,19.53
2022-12-17T12:28:21.974Z,32.13
2022-12-17T12:31:17.526Z,72.87
2022-12-17T12:34:14.488Z,18.83
2022-12-17T12:37:03.357Z,15.10
2022-12-17T12:40:16.466Z,7.57
2022-12-17T12:43:15.991Z,6.00
2022-12-17T12:46:15.728Z,6.43
2022-12-17T12:49:33.991Z,7.83
2022-12-17T12:52:20.658Z,12.25
2022-12-17T12:55:06.481Z,24.98
2022-12-17T12:57:56.294Z,19.58
2022-12-17T13:01:02.315Z,14.85
2022-12-17T13:03:50.576Z,15.73
2022-12-17T13:06:39.539Z,7.60
2022-12-17T13:09:16.911Z,14.93
2022-12-17T13:11:47.136Z,12.88
2022-12-17T13:14:24.373Z,19.50
2022-12-17T13:17:02.738Z,24.83
2022-12-17T13:19:40.815Z,31.30
2022-12-17T13:22:23.624Z,67.85
2022-12-17T13:25:09.092Z,40.15
2022-12-17T13:27:38.755Z,35.10
2022-12-17T13:30:18.814Z,31.03
2022-12-17T13:33:07.766Z,37.50
2022-12-17T13:35:54.212Z,20.87
2022-12-17T13:38:37.527Z,36.30
2022-12-17T13:41:10.877Z,62.17
2022-12-17T13:44:25.324Z,53.80
2022-12-17T13:46:54.681Z,60.47
2022-12-17T13:49:30.216Z,45.88
2022-12-17T13:52:11.408Z,33.57
2022-12-17T13:54:39.235Z,24.40
2022-12-17T13:57:14.515Z,12.73
2022-12-17T13:59:49.132Z,37.17
2022-12-17T14:02:42.838Z,36.30
2022-12-17T14:05:27.977Z,29.03
2022-12-17T14:08:00.186Z,11.33
2022-12-17T14:10:29.648Z,7.67
2022-12-17T14:13:24.288Z,10.47
2022-12-17T14:15:53.072Z,9.13
2022-12-17T14:18:21.976Z,7.35
2022-12-17T14:20:56.760Z,6.90
2022-12-17T14:23:30.201Z,13.00
2022-12-17T14:25:58.184Z,9.53
2022-12-17T14:28:37.298Z,7.70
2022-12-17T14:34:09.699Z,16.27
2022-12-17T14:36:40.271Z,154.27
2022-12-17T14:39:23.201Z,71.20
2022-12-17T14:42:10.025Z,71.93
2022-12-17T14:44:53.864Z,57.53
2022-12-17T14:47:24.924Z,54.73
2022-12-17T14:50:27.409Z,60.60
2022-12-17T14:52:57.742Z,47.63
2022-12-17T14:55:34.535Z,41.07
2022-12-17T14:58:12.139Z,29.03
2022-12-17T15:00:51.890Z,36.22
2022-12-17T15:03:27.715Z,117.03
2022-12-17T15:06:01.061Z,133.47
2022-12-17T15:08:35.922Z,96.73
2022-12-17T15:11:04.916Z,118.20
2022-12-17T15:13:32.307Z,115.35
2022-12-17T15:15:59.722Z,115.30
2022-12-17T15:18:27.857Z,93.97
2022-12-17T15:20:55.271Z,70.13
2022-12-17T15:23:24.729Z,114.88
2022-12-17T15:25:54.083Z,133.75
2022-12-17T15:28:21.787Z,95.97
2022-12-17T15:30:50.004Z,72.37
2022-12-17T15:33:17.838Z,55.72
2022-12-17T15:35:45.270Z,42.53
2022-12-17T15:38:13.234Z,135.20
2022-12-17T15:40:42.086Z,81.47
2022-12-17T15:43:11.539Z,83.93
2022-12-17T15:45:47.130Z,87.07
2022-12-17T15:48:20.518Z,91.07
2022-12-17T15:50:48.374Z,73.50
2022-12-17T15:53:16.887Z,74.53
2022-12-17T15:55:44.791Z,95.40
2022-12-17T15:58:12.291Z,41.83
2022-12-17T16:00:40.039Z,26.53
2022-12-17T16:03:07.904Z,23.70
2022-12-17T16:05:35.363Z,20.47
2022-12-17T16:08:03.372Z,18.17
2022-12-17T16:10:31.445Z,26.37
2022-12-17T16:12:59.071Z,32.43
2022-12-17T16:15:26.473Z,12.67
2022-12-17T16:17:54.215Z,29.53
2022-12-17T16:20:22.341Z,17.47
2022-12-17T16:22:49.980Z,36.13
2022-12-17T16:25:17.992Z,17.70
2022-12-17T16:27:45.583Z,28.67
2022-12-17T16:30:13.755Z,28.90
2022-12-17T16:32:41.493Z,29.15
2022-12-17T16:35:09.697Z,24.27
2022-12-17T16:37:37.101Z,27.73
2022-12-17T16:40:05.443Z,26.73
2022-12-17T16:42:32.783Z,27.20
2022-12-17T16:45:00.149Z,18.43
2022-12-17T16:47:27.896Z,24.37
2022-12-17T16:49:55.157Z,20.93
2022-12-17T16:52:22.479Z,17.03
2022-12-17T16:54:50.126Z,12.03
2022-12-17T16:57:17.425Z,10.53
2022-12-17T16:59:44.841Z,9.00
2022-12-17T17:02:15.233Z,8.10
2022-12-17T17:04:42.691Z,10.50
2022-12-17T17:07:10.056Z,33.00
2022-12-17T17:09:38.503Z,71.13
2022-12-17T17:12:08.419Z,24.63
2022-12-17T17:14:36.187Z,18.40
2022-12-17T17:17:03.957Z,8.30
2022-12-17T17:19:31.327Z,35.30
2022-12-17T17:21:58.799Z,37.90
2022-12-17T17:24:26.752Z,40.57
2022-12-17T17:26:56.010Z,34.63
2022-12-17T17:29:23.608Z,42.67
2022-12-17T17:34:40.001Z,33.80
2022-12-17T17:37:07.844Z,35.88
2022-12-17T17:39:35.249Z,26.57
2022-12-17T17:42:03.424Z,23.43
2022-12-17T17:44:31.638Z,40.58
2022-12-17T17:46:59.142Z,44.20
2022-12-17T17:49:26.435Z,27.80
2022-12-17T17:52:11.579Z,53.13
2022-12-17T17:54:39.987Z,33.63
2022-12-17T17:57:09.198Z,22.50
2022-12-17T17:59:39.569Z,24.10
2022-12-17T18:02:07.590Z,68.87
2022-12-17T18:04:35.312Z,79.97
2022-12-17T18:09:51.133Z,121.60
2022-12-17T18:12:37.546Z,113.10
2022-12-17T18:15:14.219Z,101.33
2022-12-17T18:17:42.885Z,75.37
2022-12-17T18:20:13.255Z,116.90
2022-12-17T18:22:40.597Z,139.35
2022-12-17T18:25:09.112Z,126.47
2022-12-17T18:27:36.990Z,149.43
2022-12-17T18:30:04.822Z,145.80
2022-12-17T18:32:32.450Z,125.80
2022-12-17T18:35:00.206Z,97.03
2022-12-17T18:37:27.771Z,99.00
2022-12-17T18:39:55.221Z,85.90
2022-12-17T18:42:41.384Z,82.57
2022-12-17T18:45:09.143Z,95.77
2022-12-17T18:47:36.941Z,89.28
2022-12-17T18:50:05.008Z,99.63
2022-12-17T18:52:32.365Z,169.30
2022-12-17T18:55:00.083Z,135.47
2022-12-17T18:57:27.492Z,135.87
2022-12-17T18:59:54.983Z,144.73
2022-12-17T19:02:23.043Z,121.13
2022-12-17T19:04:50.591Z,120.80
2022-12-17T19:07:17.974Z,116.23
2022-12-17T19:09:45.653Z,121.63
2022-12-17T19:12:13.795Z,113.17
2022-12-17T19:14:42.970Z,105.18
2022-12-17T19:19:38.047Z,125.53
2022-12-17T19:22:06.257Z,136.93
2022-12-17T19:24:36.940Z,120.00
2022-12-17T19:27:04.355Z,96.10
2022-12-17T19:29:31.827Z,86.33
2022-12-17T19:32:00.526Z,77.83
2022-12-17T19:34:28.046Z,60.35
2022-12-17T19:36:55.322Z,47.73
2022-12-17T19:39:23.107Z,36.00
2022-12-17T19:41:51.316Z,27.07
2022-12-17T19:44:21.103Z,58.70
2022-12-17T19:46:49.191Z,46.87
2022-12-17T19:49:16.998Z,95.20
2022-12-17T19:51:45.025Z,118.87
2022-12-17T19:54:15.476Z,123.85
2022-12-17T19:56:45.194Z,111.43
2022-12-17T19:59:13.831Z,126.40
2022-12-17T20:01:46.619Z,120.03
2022-12-17T20:04:16.545Z,129.53
2022-12-17T20:06:45.200Z,106.33
2022-12-17T20:09:13.343Z,117.57
2022-12-17T20:11:41.149Z,119.85
2022-12-17T20:14:24.023Z,123.13
2022-12-17T20:16:59.239Z,138.93
2022-12-17T20:19:32.031Z,118.30
2022-12-17T20:22:02.247Z,118.73
2022-12-17T20:24:31.810Z,115.70
2022-12-17T20:27:01.064Z,107.27
2022-12-17T20:29:28.930Z,107.12
2022-12-17T20:31:56.636Z,165.50
2022-12-17T20:34:25.449Z,122.73
2022-12-17T20:36:53.993Z,217.23
2022-12-17T20:39:26.487Z,231.13
2022-12-17T20:41:55.957Z,202.73
2022-12-17T20:44:23.392Z,171.77
2022-12-17T20:46:50.825Z,292.50
2022-12-17T20:49:18.639Z,175.30
2022-12-17T20:51:46.262Z,216.17
2022-12-17T20:54:13.692Z,293.00
2022-12-17T20:56:41.478Z,393.70
2022-12-17T20:59:14.139Z,229.93
2022-12-17T21:01:42.009Z,139.17
2022-12-17T21:04:12.229Z,132.93
2022-12-17T21:06:41.961Z,105.70
2022-12-17T21:09:10.529Z,96.90
2022-12-17T21:11:38.936Z,67.05
2022-12-17T21:14:08.997Z,37.72
2022-12-17T21:16:38.001Z,41.27
2022-12-17T21:19:06.940Z,31.73
2022-12-17T21:21:37.430Z,24.73
2022-12-17T21:24:06.615Z,25.30
2022-12-17T21:26:40.584Z,29.05
2022-12-17T21:29:09.374Z,26.50
2022-12-17T21:31:44.349Z,18.10
2022-12-17T21:34:18.086Z,27.23
2022-12-17T21:36:45.618Z,28.00
2022-12-17T21:39:14.564Z,23.73
2022-12-17T21:42:04.350Z,28.98
2022-12-17T21:44:32.376Z,27.07
2022-12-17T21:47:00.224Z,26.77
2022-12-17T21:49:27.637Z,23.77
2022-12-17T21:51:59.439Z,26.90
2022-12-17T21:54:27.169Z,29.83
2022-12-17T21:56:54.722Z,22.63
2022-12-17T21:59:22.801Z,16.23
2022-12-17T22:01:50.951Z,24.57
2022-12-17T22:04:19.032Z,32.47
2022-12-17T22:06:54.721Z,29.83
2022-12-17T22:09:44.777Z,24.10
2022-12-17T22:12:32.920Z,22.73
2022-12-17T22:15:00.980Z,20.07
2022-12-17T22:17:29.038Z,22.17
2022-12-17T22:19:57.332Z,22.42
2022-12-17T22:22:24.964Z,21.00
2022-12-17T22:24:52.510Z,20.13
2022-12-17T22:27:19.970Z,17.40
2022-12-17T22:30:06.145Z,16.20
2022-12-17T22:33:24.975Z,15.83
2022-12-17T22:38:48.938Z,18.13
2022-12-17T22:42:36.938Z,18.53
2022-12-17T22:44:33.705Z,17.83
2022-12-17T22:44:51.215Z,17.00
2022-12-17T22:47:20.582Z,17.53
2022-12-17T22:49:47.934Z,16.03
2022-12-17T22:52:15.548Z,19.47
2022-12-17T22:54:45.733Z,16.10
2022-12-17T22:57:35.376Z,12.97
2022-12-17T23:00:01.911Z,18.03
2022-12-17T23:02:29.437Z,20.67
2022-12-17T23:04:56.964Z,17.93
2022-12-17T23:07:29.935Z,16.40
2022-12-17T23:09:59.183Z,15.73
2022-12-17T23:12:46.567Z,18.95
2022-12-17T23:15:13.856Z,16.63
2022-12-17T23:17:41.526Z,18.83
2022-12-17T23:20:09.631Z,16.03
2022-12-17T23:22:37.062Z,18.50
2022-12-17T23:25:05.125Z,18.33
2022-12-17T23:27:32.949Z,16.57
2022-12-17T23:30:00.278Z,19.70
2022-12-17T23:32:27.902Z,18.77
2022-12-17T23:34:55.170Z,12.83
2022-12-17T23:37:22.552Z,13.30
2022-12-17T23:39:50.252Z,13.83
2022-12-17T23:42:17.657Z,12.30
2022-12-17T23:44:45.017Z,13.33
2022-12-17T23:47:12.613Z,14.63
2022-12-17T23:49:39.867Z,13.00
2022-12-17T23:52:07.214Z,11.80
2022-12-17T23:54:37.249Z,16.07
2022-12-17T23:57:04.731Z,13.37
2022-12-17T23:59:32.212Z,13.40
